sensor_id;sensor_type;location;lat;lon;timestamp;pressure;altitude;pressure_sealevel;temperature;humidity
21817;BME280;13247;47.504;7.382;2024-02-14T00:01:42;97943.22;;;5.73;100.00
21817;BME280;13247;47.504;7.382;2024-02-14T00:04:27;97937.16;;;5.83;100.00
21817;BME280;13247;47.504;7.382;2024-02-14T00:07:12;97944.06;;;5.94;100.00
21817;BME280;13247;47.504;7.382;2024-02-14T00:09:57;97948.25;;;6.30;100.00
21817;BME280;13247;47.504;7.382;2024-02-14T00:12:42;97937.03;;;6.19;100.00
21817;BME280;13247;47.504;7.382;2024-02-14T00:15:26;97927.50;;;6.15;100.00
21817;BME280;13247;47.504;7.382;2024-02-14T00:18:12;97932.78;;;6.06;100.00
21817;BME280;13247;47.504;7.382;2024-02-14T00:20:57;97925.00;;;5.82;100.00
21817;BME280;13247;47.504;7.382;2024-02-14T00:23:41;97933.69;;;5.73;100.00
21817;BME280;13247;47.504;7.382;2024-02-14T00:26:26;97928.50;;;5.73;100.00
21817;BME280;13247;47.504;7.382;2024-02-14T00:29:11;97946.78;;;5.44;100.00
21817;BME280;13247;47.504;7.382;2024-02-14T00:31:55;97958.03;;;5.43;100.00
21817;BME280;13247;47.504;7.382;2024-02-14T00:34:40;97955.44;;;5.52;100.00
21817;BME280;13247;47.504;7.382;2024-02-14T00:37:25;97943.22;;;5.79;100.00
21817;BME280;13247;47.504;7.382;2024-02-14T00:40:10;97939.75;;;5.77;100.00
21817;BME280;13247;47.504;7.382;2024-02-14T00:42:55;97938.91;;;5.73;100.00
21817;BME280;13247;47.504;7.382;2024-02-14T00:45:40;97947.56;;;5.93;100.00
21817;BME280;13247;47.504;7.382;2024-02-14T00:48:25;97949.25;;;6.00;100.00
21817;BME280;13247;47.504;7.382;2024-02-14T00:51:10;97941.50;;;5.91;100.00
21817;BME280;13247;47.504;7.382;2024-02-14T00:53:54;97934.53;;;5.95;100.00
21817;BME280;13247;47.504;7.382;2024-02-14T00:56:39;97931.97;;;5.89;100.00
21817;BME280;13247;47.504;7.382;2024-02-14T00:59:24;97927.66;;;5.67;100.00
21817;BME280;13247;47.504;7.382;2024-02-14T01:02:09;97935.47;;;5.59;100.00
21817;BME280;13247;47.504;7.382;2024-02-14T01:04:54;97935.44;;;5.85;100.00
21817;BME280;13247;47.504;7.382;2024-02-14T01:07:39;97931.09;;;5.78;100.00
21817;BME280;13247;47.504;7.382;2024-02-14T01:10:23;97931.91;;;5.96;100.00
21817;BME280;13247;47.504;7.382;2024-02-14T01:13:08;97919.81;;;5.86;100.00
21817;BME280;13247;47.504;7.382;2024-02-14T01:15:53;97913.72;;;5.95;100.00
21817;BME280;13247;47.504;7.382;2024-02-14T01:18:37;97921.47;;;6.07;100.00
21817;BME280;13247;47.504;7.382;2024-02-14T01:21:22;97916.38;;;5.68;100.00
21817;BME280;13247;47.504;7.382;2024-02-14T01:24:07;97920.72;;;5.53;100.00
21817;BME280;13247;47.504;7.382;2024-02-14T01:26:53;97919.91;;;5.48;100.00
21817;BME280;13247;47.504;7.382;2024-02-14T01:29:39;97922.47;;;5.47;100.00
21817;BME280;13247;47.504;7.382;2024-02-14T01:32:24;97932.91;;;5.30;100.00
21817;BME280;13247;47.504;7.382;2024-02-14T01:35:09;97923.34;;;5.53;100.00
21817;BME280;13247;47.504;7.382;2024-02-14T01:37:54;97915.53;;;5.56;100.00
21817;BME280;13247;47.504;7.382;2024-02-14T01:40:42;97915.53;;;5.58;100.00
21817;BME280;13247;47.504;7.382;2024-02-14T01:43:26;97911.16;;;5.69;100.00
21817;BME280;13247;47.504;7.382;2024-02-14T01:46:11;97901.59;;;5.88;100.00
21817;BME280;13247;47.504;7.382;2024-02-14T01:48:56;97903.34;;;5.66;100.00
21817;BME280;13247;47.504;7.382;2024-02-14T01:51:42;97903.38;;;5.72;100.00
21817;BME280;13247;47.504;7.382;2024-02-14T01:54:29;97909.38;;;5.79;100.00
21817;BME280;13247;47.504;7.382;2024-02-14T01:57:14;97911.13;;;5.81;100.00
21817;BME280;13247;47.504;7.382;2024-02-14T01:59:59;97907.72;;;5.70;100.00
21817;BME280;13247;47.504;7.382;2024-02-14T02:02:44;97913.84;;;5.37;100.00
21817;BME280;13247;47.504;7.382;2024-02-14T02:05:28;97902.53;;;5.56;100.00
21817;BME280;13247;47.504;7.382;2024-02-14T02:08:13;97905.06;;;5.81;100.00
21817;BME280;13247;47.504;7.382;2024-02-14T02:10:58;97902.50;;;5.67;100.00
21817;BME280;13247;47.504;7.382;2024-02-14T02:13:43;97896.50;;;5.45;100.00
21817;BME280;13247;47.504;7.382;2024-02-14T02:16:28;97902.56;;;5.49;100.00
21817;BME280;13247;47.504;7.382;2024-02-14T02:19:12;97899.06;;;5.64;100.00
21817;BME280;13247;47.504;7.382;2024-02-14T02:21:58;97892.03;;;5.79;100.00
21817;BME280;13247;47.504;7.382;2024-02-14T02:24:43;97899.00;;;5.91;100.00
21817;BME280;13247;47.504;7.382;2024-02-14T02:27:29;97896.34;;;5.94;100.00
21817;BME280;13247;47.504;7.382;2024-02-14T02:30:14;97897.25;;;5.91;100.00
21817;BME280;13247;47.504;7.382;2024-02-14T02:32:58;97893.81;;;5.76;100.00
21817;BME280;13247;47.504;7.382;2024-02-14T02:35:43;97895.56;;;5.65;100.00
21817;BME280;13247;47.504;7.382;2024-02-14T02:38:29;97892.13;;;5.61;100.00
21817;BME280;13247;47.504;7.382;2024-02-14T02:41:15;97890.31;;;5.89;100.00
21817;BME280;13247;47.504;7.382;2024-02-14T02:43:59;97895.53;;;5.86;100.00
21817;BME280;13247;47.504;7.382;2024-02-14T02:46:46;97896.44;;;5.57;100.00
21817;BME280;13247;47.504;7.382;2024-02-14T02:49:31;97893.81;;;5.68;100.00
21817;BME280;13247;47.504;7.382;2024-02-14T02:52:15;97895.59;;;5.62;100.00
21817;BME280;13247;47.504;7.382;2024-02-14T02:55:00;97890.31;;;5.89;100.00
21817;BME280;13247;47.504;7.382;2024-02-14T02:57:45;97892.91;;;5.93;100.00
21817;BME280;13247;47.504;7.382;2024-02-14T03:00:30;97890.31;;;5.83;100.00
21817;BME280;13247;47.504;7.382;2024-02-14T03:03:15;97883.47;;;5.53;100.00
21817;BME280;13247;47.504;7.382;2024-02-14T03:06:00;97884.34;;;5.55;100.00
21817;BME280;13247;47.504;7.382;2024-02-14T03:08:48;97889.53;;;5.53;100.00
21817;BME280;13247;47.504;7.382;2024-02-14T03:11:33;97892.16;;;5.41;100.00
21817;BME280;13247;47.504;7.382;2024-02-14T03:14:18;97901.72;;;5.32;100.00
21817;BME280;13247;47.504;7.382;2024-02-14T03:17:03;97899.97;;;5.49;100.00
21817;BME280;13247;47.504;7.382;2024-02-14T03:19:48;97900.84;;;5.37;100.00
21817;BME280;13247;47.504;7.382;2024-02-14T03:22:36;97919.09;;;5.15;100.00
21817;BME280;13247;47.504;7.382;2024-02-14T03:25:21;97924.28;;;5.01;100.00
21817;BME280;13247;47.504;7.382;2024-02-14T03:28:08;97925.13;;;5.35;100.00
21817;BME280;13247;47.504;7.382;2024-02-14T03:30:53;97922.47;;;5.47;100.00
21817;BME280;13247;47.504;7.382;2024-02-14T03:33:38;97937.25;;;5.43;100.00
21817;BME280;13247;47.504;7.382;2024-02-14T03:36:23;97931.16;;;5.41;100.00
21817;BME280;13247;47.504;7.382;2024-02-14T03:39:08;97917.31;;;5.36;100.00
21817;BME280;13247;47.504;7.382;2024-02-14T03:41:53;97912.94;;;5.60;100.00
21817;BME280;13247;47.504;7.382;2024-02-14T03:44:38;97917.25;;;5.61;100.00
21817;BME280;13247;47.504;7.382;2024-02-14T03:47:24;97935.53;;;5.08;100.00
21817;BME280;13247;47.504;7.382;2024-02-14T03:50:09;97944.19;;;5.16;100.00
21817;BME280;13247;47.504;7.382;2024-02-14T03:52:54;97954.63;;;5.28;100.00
21817;BME280;13247;47.504;7.382;2024-02-14T03:55:39;97952.00;;;5.14;100.00
21817;BME280;13247;47.504;7.382;2024-02-14T03:58:24;97955.47;;;5.18;100.00
21817;BME280;13247;47.504;7.382;2024-02-14T04:01:09;97947.66;;;5.33;100.00
21817;BME280;13247;47.504;7.382;2024-02-14T04:03:53;97948.53;;;5.38;100.00
21817;BME280;13247;47.504;7.382;2024-02-14T04:06:38;97938.06;;;5.57;100.00
21817;BME280;13247;47.504;7.382;2024-02-14T04:09:23;97930.28;;;5.51;100.00
21817;BME280;13247;47.504;7.382;2024-02-14T04:12:08;97925.09;;;5.41;100.00
21817;BME280;13247;47.504;7.382;2024-02-14T04:14:54;97932.94;;;5.24;100.00
21817;BME280;13247;47.504;7.382;2024-02-14T04:17:39;97936.38;;;5.26;100.00
21817;BME280;13247;47.504;7.382;2024-02-14T04:20:24;97940.75;;;5.23;100.00
21817;BME280;13247;47.504;7.382;2024-02-14T04:23:09;97928.59;;;5.35;100.00
21817;BME280;13247;47.504;7.382;2024-02-14T04:25:53;97941.59;;;5.23;100.00
21817;BME280;13247;47.504;7.382;2024-02-14T04:28:38;97943.31;;;5.45;100.00
21817;BME280;13247;47.504;7.382;2024-02-14T04:31:25;97945.88;;;5.59;100.00
21817;BME280;13247;47.504;7.382;2024-02-14T04:34:11;97945.91;;;5.53;100.00
21817;BME280;13247;47.504;7.382;2024-02-14T04:36:57;97943.25;;;5.74;100.00
21817;BME280;13247;47.504;7.382;2024-02-14T04:39:42;97936.28;;;5.79;100.00
21817;BME280;13247;47.504;7.382;2024-02-14T04:42:27;97934.47;;;6.07;100.00
21817;BME280;13247;47.504;7.382;2024-02-14T04:45:12;97932.63;;;6.30;100.00
21817;BME280;13247;47.504;7.382;2024-02-14T04:47:57;97936.19;;;6.11;100.00
21817;BME280;13247;47.504;7.382;2024-02-14T04:50:42;97943.22;;;5.83;100.00
21817;BME280;13247;47.504;7.382;2024-02-14T04:53:27;97945.84;;;5.73;100.00
21817;BME280;13247;47.504;7.382;2024-02-14T04:56:11;97961.47;;;5.76;100.00
21817;BME280;13247;47.504;7.382;2024-02-14T04:58:56;97961.41;;;6.01;100.00
21817;BME280;13247;47.504;7.382;2024-02-14T05:01:41;97951.91;;;5.82;100.00
21817;BME280;13247;47.504;7.382;2024-02-14T05:04:26;97958.84;;;5.76;100.00
21817;BME280;13247;47.504;7.382;2024-02-14T05:07:12;97960.50;;;6.13;100.00
21817;BME280;13247;47.504;7.382;2024-02-14T05:09:56;97960.47;;;6.22;100.00
21817;BME280;13247;47.504;7.382;2024-02-14T05:12:41;97955.06;;;6.58;100.00
21817;BME280;13247;47.504;7.382;2024-02-14T05:15:25;97963.81;;;6.42;100.00
21817;BME280;13247;47.504;7.382;2024-02-14T05:18:10;97968.31;;;6.07;100.00
21817;BME280;13247;47.504;7.382;2024-02-14T05:20:55;97972.72;;;5.75;100.00
21817;BME280;13247;47.504;7.382;2024-02-14T05:23:39;97986.59;;;5.71;100.00
21817;BME280;13247;47.504;7.382;2024-02-14T05:26:24;97977.84;;;6.11;100.00
21817;BME280;13247;47.504;7.382;2024-02-14T05:29:09;97969.19;;;6.12;100.00
21817;BME280;13247;47.504;7.382;2024-02-14T05:31:53;97969.19;;;6.09;100.00
21817;BME280;13247;47.504;7.382;2024-02-14T05:34:39;97963.13;;;6.05;100.00
21817;BME280;13247;47.504;7.382;2024-02-14T05:37:24;97962.25;;;6.14;100.00
21817;BME280;13247;47.504;7.382;2024-02-14T05:40:11;97965.72;;;6.11;100.00
21817;BME280;13247;47.504;7.382;2024-02-14T05:42:56;97960.47;;;6.22;100.00
21817;BME280;13247;47.504;7.382;2024-02-14T05:45:41;97965.66;;;6.19;100.00
21817;BME280;13247;47.504;7.382;2024-02-14T05:48:25;97964.78;;;6.29;100.00
21817;BME280;13247;47.504;7.382;2024-02-14T05:51:10;97950.03;;;6.25;100.00
21817;BME280;13247;47.504;7.382;2024-02-14T05:53:55;97946.53;;;6.35;100.00
21817;BME280;13247;47.504;7.382;2024-02-14T05:56:40;97936.13;;;6.26;100.00
21817;BME280;13247;47.504;7.382;2024-02-14T05:59:25;97946.53;;;6.27;100.00
21817;BME280;13247;47.504;7.382;2024-02-14T06:02:09;97952.69;;;6.13;100.00
21817;BME280;13247;47.504;7.382;2024-02-14T06:04:54;97966.56;;;6.10;100.00
21817;BME280;13247;47.504;7.382;2024-02-14T06:07:39;97960.50;;;6.16;100.00
21817;BME280;13247;47.504;7.382;2024-02-14T06:10:24;97957.88;;;6.20;100.00
21817;BME280;13247;47.504;7.382;2024-02-14T06:13:10;97967.31;;;6.43;100.00
21817;BME280;13247;47.504;7.382;2024-02-14T06:15:54;97965.59;;;6.42;100.00
21817;BME280;13247;47.504;7.382;2024-02-14T06:18:39;97962.75;;;6.76;100.00
21817;BME280;13247;47.504;7.382;2024-02-14T06:21:24;97947.03;;;6.91;100.00
21817;BME280;13247;47.504;7.382;2024-02-14T06:24:10;97945.50;;;6.60;100.00
21817;BME280;13247;47.504;7.382;2024-02-14T06:26:57;97948.00;;;6.77;100.00
21817;BME280;13247;47.504;7.382;2024-02-14T06:29:42;97944.69;;;6.49;100.00
21817;BME280;13247;47.504;7.382;2024-02-14T06:32:27;97941.22;;;6.47;100.00
21817;BME280;13247;47.504;7.382;2024-02-14T06:35:12;97950.69;;;6.62;100.00
21817;BME280;13247;47.504;7.382;2024-02-14T06:37:59;97946.06;;;7.04;100.00
21817;BME280;13247;47.504;7.382;2024-02-14T06:40:43;97941.66;;;7.11;100.00
21817;BME280;13247;47.504;7.382;2024-02-14T06:43:28;97947.78;;;7.07;100.00
21817;BME280;13247;47.504;7.382;2024-02-14T06:46:13;97961.75;;;6.97;100.00
21817;BME280;13247;47.504;7.382;2024-02-14T06:48:58;97956.53;;;6.98;100.00
21817;BME280;13247;47.504;7.382;2024-02-14T06:51:43;97959.16;;;6.95;100.00
21817;BME280;13247;47.504;7.382;2024-02-14T06:54:27;97948.63;;;7.10;100.00
21817;BME280;13247;47.504;7.382;2024-02-14T06:57:12;97954.78;;;6.97;100.00
21817;BME280;13247;47.504;7.382;2024-02-14T06:59:57;97968.09;;;6.55;100.00
21817;BME280;13247;47.504;7.382;2024-02-14T07:02:42;97978.59;;;6.43;100.00
21817;BME280;13247;47.504;7.382;2024-02-14T07:05:27;97986.44;;;6.37;100.00
21817;BME280;13247;47.504;7.382;2024-02-14T07:08:13;97997.78;;;6.19;100.00
21817;BME280;13247;47.504;7.382;2024-02-14T07:10:59;98008.19;;;6.28;100.00
21817;BME280;13247;47.504;7.382;2024-02-14T07:13:44;98004.63;;;6.45;100.00
21817;BME280;13247;47.504;7.382;2024-02-14T07:16:29;98005.28;;;6.87;100.00
21817;BME280;13247;47.504;7.382;2024-02-14T07:19:14;98004.25;;;7.08;100.00
21817;BME280;13247;47.504;7.382;2024-02-14T07:21:58;97996.41;;;7.16;100.00
21817;BME280;13247;47.504;7.382;2024-02-14T07:24:43;98001.88;;;6.78;100.00
21817;BME280;13247;47.504;7.382;2024-02-14T07:27:28;98017.72;;;6.36;100.00
21817;BME280;13247;47.504;7.382;2024-02-14T07:30:13;98018.53;;;6.48;100.00
21817;BME280;13247;47.504;7.382;2024-02-14T07:32:58;98034.09;;;6.56;100.00
21817;BME280;13247;47.504;7.382;2024-02-14T07:35:43;98030.59;;;6.69;100.00
21817;BME280;13247;47.504;7.382;2024-02-14T07:38:28;98028.78;;;6.77;100.00
21817;BME280;13247;47.504;7.382;2024-02-14T07:41:13;98019.16;;;6.89;100.00
21817;BME280;13247;47.504;7.382;2024-02-14T07:43:57;98020.00;;;6.96;100.00
21817;BME280;13247;47.504;7.382;2024-02-14T07:46:42;98034.97;;;6.58;100.00
21817;BME280;13247;47.504;7.382;2024-02-14T07:49:27;98039.31;;;6.53;100.00
21817;BME280;13247;47.504;7.382;2024-02-14T07:52:11;98049.66;;;6.80;100.00
21817;BME280;13247;47.504;7.382;2024-02-14T07:54:56;98042.66;;;6.85;100.00
21817;BME280;13247;47.504;7.382;2024-02-14T07:57:41;98045.19;;;6.97;100.00
21817;BME280;13247;47.504;7.382;2024-02-14T08:00:26;98043.41;;;7.06;100.00
21817;BME280;13247;47.504;7.382;2024-02-14T08:03:11;98047.66;;;7.21;100.00
21817;BME280;13247;47.504;7.382;2024-02-14T08:05:56;98042.34;;;7.29;100.00
21817;BME280;13247;47.504;7.382;2024-02-14T08:08:40;98042.16;;;7.54;100.00
21817;BME280;13247;47.504;7.382;2024-02-14T08:11:25;98037.69;;;7.70;100.00
21817;BME280;13247;47.504;7.382;2024-02-14T08:14:10;98035.88;;;7.78;100.00
21817;BME280;13247;47.504;7.382;2024-02-14T08:16:55;98032.53;;;7.64;100.00
21817;BME280;13247;47.504;7.382;2024-02-14T08:19:40;98040.09;;;7.92;100.00
21817;BME280;13247;47.504;7.382;2024-02-14T08:22:25;98041.56;;;8.18;100.00
21817;BME280;13247;47.504;7.382;2024-02-14T08:25:11;98028.66;;;8.04;100.00
21817;BME280;13247;47.504;7.382;2024-02-14T08:27:56;98019.81;;;8.17;100.00
21817;BME280;13247;47.504;7.382;2024-02-14T08:30:41;98030.13;;;8.34;100.00
21817;BME280;13247;47.504;7.382;2024-02-14T08:33:25;98034.44;;;8.38;100.00
21817;BME280;13247;47.504;7.382;2024-02-14T08:36:10;98030.06;;;8.38;100.00
21817;BME280;13247;47.504;7.382;2024-02-14T08:38:55;98030.19;;;8.26;100.00
21817;BME280;13247;47.504;7.382;2024-02-14T08:41:39;98034.31;;;8.45;100.00
21817;BME280;13247;47.504;7.382;2024-02-14T08:44:29;98037.56;;;8.65;100.00
21817;BME280;13247;47.504;7.382;2024-02-14T08:47:14;98031.66;;;8.50;100.00
21817;BME280;13247;47.504;7.382;2024-02-14T08:49:58;98030.47;;;8.75;100.00
21817;BME280;13247;47.504;7.382;2024-02-14T08:52:44;98028.41;;;8.98;100.00
21817;BME280;13247;47.504;7.382;2024-02-14T08:55:28;98031.53;;;9.24;100.00
21817;BME280;13247;47.504;7.382;2024-02-14T08:58:16;98031.34;;;9.35;100.00
21817;BME280;13247;47.504;7.382;2024-02-14T09:01:01;98023.34;;;9.44;100.00
21817;BME280;13247;47.504;7.382;2024-02-14T09:03:46;98014.22;;;9.69;100.00
21817;BME280;13247;47.504;7.382;2024-02-14T09:06:34;98013.25;;;9.75;100.00
21817;BME280;13247;47.504;7.382;2024-02-14T09:09:18;98008.31;;;10.05;100.00
21817;BME280;13247;47.504;7.382;2024-02-14T09:12:04;98003.75;;;10.16;100.00
21817;BME280;13247;47.504;7.382;2024-02-14T09:14:49;98009.47;;;9.89;100.00
21817;BME280;13247;47.504;7.382;2024-02-14T09:17:34;98003.69;;;10.21;100.00
21817;BME280;13247;47.504;7.382;2024-02-14T09:20:18;98000.47;;;10.50;100.00
21817;BME280;13247;47.504;7.382;2024-02-14T09:23:04;98002.16;;;10.54;100.00
21817;BME280;13247;47.504;7.382;2024-02-14T09:25:49;98007.19;;;10.21;100.00
21817;BME280;13247;47.504;7.382;2024-02-14T09:28:34;98007.22;;;10.20;100.00
21817;BME280;13247;47.504;7.382;2024-02-14T09:31:19;98007.75;;;10.36;100.00
21817;BME280;13247;47.504;7.382;2024-02-14T09:34:04;98015.78;;;10.28;100.00
21817;BME280;13247;47.504;7.382;2024-02-14T09:36:49;98006.06;;;10.35;100.00
21817;BME280;13247;47.504;7.382;2024-02-14T09:39:34;98007.75;;;10.36;100.00
21817;BME280;13247;47.504;7.382;2024-02-14T09:42:23;98009.63;;;10.31;100.00
21817;BME280;13247;47.504;7.382;2024-02-14T09:45:10;98003.34;;;10.38;100.00
21817;BME280;13247;47.504;7.382;2024-02-14T09:47:55;98018.28;;;10.34;100.00
21817;BME280;13247;47.504;7.382;2024-02-14T09:50:41;98015.38;;;10.49;100.00
21817;BME280;13247;47.504;7.382;2024-02-14T09:53:26;98006.78;;;10.82;100.00
21817;BME280;13247;47.504;7.382;2024-02-14T09:56:13;98008.72;;;10.74;100.00
21817;BME280;13247;47.504;7.382;2024-02-14T09:58:59;98011.25;;;10.79;100.00
21817;BME280;13247;47.504;7.382;2024-02-14T10:01:47;98000.53;;;10.88;100.00
21817;BME280;13247;47.504;7.382;2024-02-14T10:04:33;97999.06;;;11.15;100.00
21817;BME280;13247;47.504;7.382;2024-02-14T10:07:18;97996.09;;;11.30;100.00
21817;BME280;13247;47.504;7.382;2024-02-14T10:10:06;98002.75;;;11.43;100.00
21817;BME280;13247;47.504;7.382;2024-02-14T10:12:51;97989.75;;;11.38;100.00
21817;BME280;13247;47.504;7.382;2024-02-14T10:15:36;98000.53;;;11.26;100.00
21817;BME280;13247;47.504;7.382;2024-02-14T10:18:20;98003.56;;;11.46;100.00
21817;BME280;13247;47.504;7.382;2024-02-14T10:21:08;97995.19;;;11.66;100.00
21817;BME280;13247;47.504;7.382;2024-02-14T10:23:53;97995.84;;;11.75;100.00
21817;BME280;13247;47.504;7.382;2024-02-14T10:26:37;97992.72;;;11.95;100.00
21817;BME280;13247;47.504;7.382;2024-02-14T10:29:22;97989.88;;;12.03;100.00
21817;BME280;13247;47.504;7.382;2024-02-14T10:32:07;97994.09;;;12.08;100.00
21817;BME280;13247;47.504;7.382;2024-02-14T10:34:52;97998.59;;;12.05;100.00
21817;BME280;13247;47.504;7.382;2024-02-14T10:37:37;98001.56;;;12.23;100.00
21817;BME280;13247;47.504;7.382;2024-02-14T10:40:22;98003.09;;;12.32;100.00
21817;BME280;13247;47.504;7.382;2024-02-14T10:43:07;98006.00;;;12.21;100.00
21817;BME280;13247;47.504;7.382;2024-02-14T10:45:53;97997.34;;;12.50;100.00
21817;BME280;13247;47.504;7.382;2024-02-14T10:48:39;98007.72;;;12.24;100.00
21817;BME280;13247;47.504;7.382;2024-02-14T10:51:24;98008.69;;;12.50;100.00
21817;BME280;13247;47.504;7.382;2024-02-14T10:54:10;98003.25;;;12.58;100.00
21817;BME280;13247;47.504;7.382;2024-02-14T10:56:57;98003.50;;;12.78;100.00
21817;BME280;13247;47.504;7.382;2024-02-14T10:59:43;98004.88;;;12.91;100.00
21817;BME280;13247;47.504;7.382;2024-02-14T11:02:29;98004.00;;;13.21;100.00
21817;BME280;13247;47.504;7.382;2024-02-14T11:05:15;98007.44;;;12.94;100.00
21817;BME280;13247;47.504;7.382;2024-02-14T11:08:07;98022.00;;;13.06;100.00
21817;BME280;13247;47.504;7.382;2024-02-14T11:10:56;98019.34;;;13.35;100.00
21817;BME280;13247;47.504;7.382;2024-02-14T11:13:40;98024.19;;;13.49;100.00
21817;BME280;13247;47.504;7.382;2024-02-14T11:16:25;98023.91;;;13.58;100.00
21817;BME280;13247;47.504;7.382;2024-02-14T11:19:13;98026.19;;;13.68;100.00
21817;BME280;13247;47.504;7.382;2024-02-14T11:21:58;98018.69;;;13.82;100.00
21817;BME280;13247;47.504;7.382;2024-02-14T11:24:48;98030.59;;;13.94;100.00
21817;BME280;13247;47.504;7.382;2024-02-14T11:27:33;98033.13;;;13.97;100.00
21817;BME280;13247;47.504;7.382;2024-02-14T11:30:26;98033.69;;;14.06;100.00
21817;BME280;13247;47.504;7.382;2024-02-14T11:35:59;98031.09;;;14.31;100.00
21817;BME280;13247;47.504;7.382;2024-02-14T11:38:45;98029.50;;;14.26;100.00
21817;BME280;13247;47.504;7.382;2024-02-14T11:41:32;98012.25;;;14.15;100.00
21817;BME280;13247;47.504;7.382;2024-02-14T11:44:20;98015.34;;;14.30;100.00
21817;BME280;13247;47.504;7.382;2024-02-14T11:47:06;98021.34;;;14.33;100.00
21817;BME280;13247;47.504;7.382;2024-02-14T11:49:51;98013.63;;;14.27;100.00
21817;BME280;13247;47.504;7.382;2024-02-14T11:52:36;98008.59;;;14.19;100.00
21817;BME280;13247;47.504;7.382;2024-02-14T11:55:27;98017.59;;;14.40;100.00
21817;BME280;13247;47.504;7.382;2024-02-14T11:58:12;98018.41;;;14.42;100.00
21817;BME280;13247;47.504;7.382;2024-02-14T12:00:57;98012.03;;;14.48;100.00
21817;BME280;13247;47.504;7.382;2024-02-14T12:03:42;98002.22;;;14.51;100.00
21817;BME280;13247;47.504;7.382;2024-02-14T12:06:30;97998.09;;;14.44;100.00
21817;BME280;13247;47.504;7.382;2024-02-14T12:09:22;98000.03;;;14.39;100.00
21817;BME280;13247;47.504;7.382;2024-02-14T12:12:06;97989.00;;;14.51;100.00
21817;BME280;13247;47.504;7.382;2024-02-14T12:14:51;97990.88;;;14.72;100.00
21817;BME280;13247;47.504;7.382;2024-02-14T12:17:36;97991.78;;;14.48;100.00
21817;BME280;13247;47.504;7.382;2024-02-14T12:20:21;97994.78;;;14.62;100.00
21817;BME280;13247;47.504;7.382;2024-02-14T12:23:07;97987.94;;;14.57;100.00
21817;BME280;13247;47.504;7.382;2024-02-14T12:25:52;97981.25;;;14.47;100.00
21817;BME280;13247;47.504;7.382;2024-02-14T12:28:37;97992.63;;;14.49;100.00
21817;BME280;13247;47.504;7.382;2024-02-14T12:31:23;97993.31;;;14.54;100.00
21817;BME280;13247;47.504;7.382;2024-02-14T12:34:10;97987.19;;;14.53;100.00
21817;BME280;13247;47.504;7.382;2024-02-14T12:36:54;97985.16;;;14.61;100.00
21817;BME280;13247;47.504;7.382;2024-02-14T12:39:39;97986.25;;;14.31;100.00
21817;BME280;13247;47.504;7.382;2024-02-14T12:42:24;97976.38;;;14.59;100.00
21817;BME280;13247;47.504;7.382;2024-02-14T12:45:11;97974.13;;;14.50;100.00
21817;BME280;13247;47.504;7.382;2024-02-14T12:47:55;97977.91;;;14.66;100.00
21817;BME280;13247;47.504;7.382;2024-02-14T12:50:41;97976.00;;;14.70;100.00
21817;BME280;13247;47.504;7.382;2024-02-14T12:53:32;97958.44;;;14.69;100.00
21817;BME280;13247;47.504;7.382;2024-02-14T12:56:17;97972.03;;;14.58;100.00
21817;BME280;13247;47.504;7.382;2024-02-14T12:59:02;97958.75;;;14.61;100.00
21817;BME280;13247;47.504;7.382;2024-02-14T13:01:47;97960.34;;;14.65;100.00
21817;BME280;13247;47.504;7.382;2024-02-14T13:04:32;97958.94;;;14.55;100.00
21817;BME280;13247;47.504;7.382;2024-02-14T13:07:16;97958.22;;;14.52;100.00
21817;BME280;13247;47.504;7.382;2024-02-14T13:10:02;97964.22;;;14.55;100.00
21817;BME280;13247;47.504;7.382;2024-02-14T13:12:47;97975.03;;;14.72;100.00
21817;BME280;13247;47.504;7.382;2024-02-14T13:15:31;97963.03;;;14.64;100.00
21817;BME280;13247;47.504;7.382;2024-02-14T13:18:17;97952.44;;;14.65;100.00
21817;BME280;13247;47.504;7.382;2024-02-14T13:21:02;97957.09;;;14.80;100.00
21817;BME280;13247;47.504;7.382;2024-02-14T13:23:47;97952.41;;;14.88;100.00
21817;BME280;13247;47.504;7.382;2024-02-14T13:26:32;97953.00;;;14.73;100.00
21817;BME280;13247;47.504;7.382;2024-02-14T13:29:18;97950.69;;;14.87;100.00
21817;BME280;13247;47.504;7.382;2024-02-14T13:32:03;97940.63;;;14.97;100.00
21817;BME280;13247;47.504;7.382;2024-02-14T13:34:51;97936.09;;;15.01;100.00
21817;BME280;13247;47.504;7.382;2024-02-14T13:37:36;97943.59;;;15.11;100.00
21817;BME280;13247;47.504;7.382;2024-02-14T13:40:21;97948.28;;;14.81;100.00
21817;BME280;13247;47.504;7.382;2024-02-14T13:43:06;97933.72;;;14.71;100.00
21817;BME280;13247;47.504;7.382;2024-02-14T13:45:50;97928.19;;;14.77;100.00
21817;BME280;13247;47.504;7.382;2024-02-14T13:48:35;97929.16;;;14.75;100.00
21817;BME280;13247;47.504;7.382;2024-02-14T13:51:20;97931.56;;;14.81;100.00
21817;BME280;13247;47.504;7.382;2024-02-14T13:54:04;97921.88;;;14.81;100.00
21817;BME280;13247;47.504;7.382;2024-02-14T13:56:50;97915.69;;;14.82;100.00
21817;BME280;13247;47.504;7.382;2024-02-14T13:59:36;97915.19;;;14.94;100.00
21817;BME280;13247;47.504;7.382;2024-02-14T14:02:20;97920.22;;;14.79;100.00
21817;BME280;13247;47.504;7.382;2024-02-14T14:05:05;97916.03;;;14.73;100.00
21817;BME280;13247;47.504;7.382;2024-02-14T14:07:53;97916.03;;;14.73;100.00
21817;BME280;13247;47.504;7.382;2024-02-14T14:10:38;97910.69;;;14.75;100.00
21817;BME280;13247;47.504;7.382;2024-02-14T14:13:22;97910.00;;;14.70;100.00
21817;BME280;13247;47.504;7.382;2024-02-14T14:16:07;97910.16;;;14.88;100.00
21817;BME280;13247;47.504;7.382;2024-02-14T14:18:52;97917.41;;;14.83;100.00
21817;BME280;13247;47.504;7.382;2024-02-14T14:21:37;97925.56;;;14.77;100.00
21817;BME280;13247;47.504;7.382;2024-02-14T14:24:22;97932.69;;;14.75;100.00
21817;BME280;13247;47.504;7.382;2024-02-14T14:27:07;97927.41;;;14.75;100.00
21817;BME280;13247;47.504;7.382;2024-02-14T14:29:53;97915.44;;;14.88;100.00
21817;BME280;13247;47.504;7.382;2024-02-14T14:32:38;97917.88;;;14.71;100.00
21817;BME280;13247;47.504;7.382;2024-02-14T14:35:24;97913.41;;;14.73;100.00